createdAt,value
2019-05-06T00:00:06.386Z,20.83
2019-05-06T00:01:06.398Z,20.88
2019-05-06T00:02:06.351Z,20.83
2019-05-06T00:03:06.340Z,20.83
2019-05-06T00:04:06.342Z,20.88
2019-05-06T00:05:06.322Z,20.83
2019-05-06T00:06:06.304Z,20.83
2019-05-06T00:07:06.319Z,20.87
2019-05-06T00:08:06.312Z,20.93
2019-05-06T00:09:06.285Z,20.85
2019-05-06T00:10:06.302Z,20.83
2019-05-06T00:11:06.263Z,20.91
2019-05-06T00:12:06.260Z,20.81
2019-05-06T00:13:06.243Z,20.85
2019-05-06T00:14:06.229Z,20.85
2019-05-06T00:15:06.260Z,20.93
2019-05-06T00:16:06.198Z,20.90
2019-05-06T00:17:06.213Z,20.81
2019-05-06T00:18:06.217Z,20.96
2019-05-06T00:19:06.174Z,20.91
2019-05-06T00:20:06.196Z,20.87
2019-05-06T00:21:06.154Z,20.88
2019-05-06T00:22:06.150Z,20.81
2019-05-06T00:23:06.125Z,20.88
2019-05-06T00:24:06.128Z,20.82
2019-05-06T00:25:06.128Z,20.85
2019-05-06T00:26:06.080Z,20.81
2019-05-06T00:27:06.073Z,20.81
2019-05-06T00:28:06.268Z,20.96
2019-05-06T00:29:06.057Z,20.79
2019-05-06T00:30:06.098Z,20.90
2019-05-06T00:31:12.731Z,20.81
2019-05-06T00:32:06.032Z,20.76
2019-05-06T00:33:06.019Z,20.76
2019-05-06T00:34:06.019Z,20.78
2019-05-06T00:35:06.033Z,20.81
2019-05-06T00:36:06.011Z,20.69
2019-05-06T00:37:06.009Z,20.75
2019-05-06T00:38:05.994Z,20.81
2019-05-06T00:39:05.963Z,20.78
2019-05-06T00:40:05.941Z,20.82
2019-05-06T00:41:05.924Z,20.73
2019-05-06T00:42:05.928Z,20.79
2019-05-06T00:43:05.939Z,20.75
2019-05-06T00:44:05.900Z,20.71
2019-05-06T00:45:05.898Z,20.82
2019-05-06T00:46:05.877Z,20.69
2019-05-06T00:47:05.861Z,20.69
2019-05-06T00:48:05.861Z,20.78
2019-05-06T00:49:05.873Z,20.78
2019-05-06T00:50:05.855Z,20.79
2019-05-06T00:51:05.816Z,20.79
2019-05-06T00:52:05.804Z,20.83
2019-05-06T00:53:05.830Z,20.79
2019-05-06T00:54:05.788Z,20.82
2019-05-06T00:55:05.819Z,20.78
2019-05-06T00:56:05.786Z,20.79
2019-05-06T00:57:05.747Z,20.93
2019-05-06T00:58:14.229Z,20.81
2019-05-06T00:59:05.727Z,20.73
2019-05-06T01:00:05.728Z,20.85
2019-05-06T01:01:05.713Z,20.79
2019-05-06T01:02:05.711Z,20.79
2019-05-06T01:03:05.823Z,20.81
2019-05-06T01:04:05.672Z,20.76
2019-05-06T01:05:05.663Z,20.75
2019-05-06T01:06:05.661Z,20.73
2019-05-06T01:07:05.639Z,20.76
2019-05-06T01:08:05.621Z,20.81
2019-05-06T01:09:05.658Z,20.76
2019-05-06T01:10:05.608Z,20.79
2019-05-06T01:11:05.649Z,20.75
2019-05-06T01:12:05.613Z,20.75
2019-05-06T01:13:05.597Z,20.82
2019-05-06T01:14:05.562Z,20.83
2019-05-06T01:15:05.566Z,20.81
2019-05-06T01:16:05.567Z,20.75
2019-05-06T01:17:05.569Z,20.76
2019-05-06T01:18:05.517Z,20.73
2019-05-06T01:19:05.507Z,20.71
2019-05-06T01:20:05.499Z,20.71
2019-05-06T01:21:05.512Z,20.71
2019-05-06T01:22:05.514Z,20.71
2019-05-06T01:23:05.455Z,20.73
2019-05-06T01:24:05.475Z,20.71
2019-05-06T01:25:05.449Z,20.76
2019-05-06T01:26:05.468Z,20.75
2019-05-06T01:27:05.412Z,20.73
2019-05-06T01:28:05.410Z,20.71
2019-05-06T01:29:05.430Z,20.73
2019-05-06T01:30:05.389Z,20.78
2019-05-06T01:31:05.377Z,20.72
2019-05-06T01:32:05.363Z,20.72
2019-05-06T01:33:05.353Z,20.81
2019-05-06T01:34:05.339Z,20.79
2019-05-06T01:35:05.387Z,20.76
2019-05-06T01:36:05.345Z,20.73
2019-05-06T01:37:05.324Z,20.73
2019-05-06T01:38:05.314Z,20.72
2019-05-06T01:39:05.280Z,20.69
2019-05-06T01:40:05.282Z,20.76
2019-05-06T01:41:05.262Z,20.75
2019-05-06T01:42:05.278Z,20.76
2019-05-06T01:43:05.250Z,20.72
2019-05-06T01:44:05.231Z,20.78
2019-05-06T01:45:05.223Z,20.78
2019-05-06T01:46:05.222Z,20.76
2019-05-06T01:47:05.219Z,20.71
2019-05-06T01:48:05.208Z,20.79
2019-05-06T01:49:05.171Z,20.68
2019-05-06T01:50:05.184Z,20.72
2019-05-06T01:51:05.159Z,20.68
2019-05-06T01:52:05.139Z,20.68
2019-05-06T01:53:05.181Z,20.68
2019-05-06T01:54:05.135Z,20.81
2019-05-06T01:55:05.123Z,20.73
2019-05-06T01:56:05.095Z,20.68
2019-05-06T01:57:05.082Z,20.78
2019-05-06T01:58:05.184Z,20.72
2019-05-06T01:59:05.066Z,20.71
2019-05-06T02:00:05.059Z,20.76
2019-05-06T02:01:05.034Z,20.75
2019-05-06T02:02:05.039Z,20.68
2019-05-06T02:03:05.038Z,20.79
2019-05-06T02:04:05.021Z,20.71
2019-05-06T02:05:04.998Z,20.72
2019-05-06T02:06:05.027Z,20.75
2019-05-06T02:07:04.970Z,20.69
2019-05-06T02:08:04.969Z,20.72
2019-05-06T02:09:04.959Z,20.69
2019-05-06T02:10:04.963Z,20.66
2019-05-06T02:11:04.948Z,20.60
2019-05-06T02:12:04.941Z,20.68
2019-05-06T02:13:04.925Z,20.61
2019-05-06T02:14:04.939Z,20.66
2019-05-06T02:15:04.882Z,20.68
2019-05-06T02:16:04.891Z,20.64
2019-05-06T02:17:04.997Z,20.66
2019-05-06T02:18:04.900Z,20.64
2019-05-06T02:19:04.841Z,20.69
2019-05-06T02:20:04.825Z,20.71
2019-05-06T02:21:05.498Z,20.69
2019-05-06T02:22:04.826Z,20.71
2019-05-06T02:23:04.802Z,20.68
2019-05-06T02:24:04.791Z,20.71
2019-05-06T02:25:04.810Z,20.69
2019-05-06T02:26:04.902Z,20.71
2019-05-06T02:27:04.759Z,20.66
2019-05-06T02:28:04.740Z,20.71
2019-05-06T02:29:04.735Z,20.71
2019-05-06T02:30:05.670Z,20.71
2019-05-06T02:31:05.462Z,20.69
2019-05-06T02:32:17.056Z,20.68
2019-05-06T02:33:04.688Z,20.69
2019-05-06T02:34:05.283Z,20.64
2019-05-06T02:35:05.365Z,20.69
2019-05-06T02:36:06.597Z,20.64
2019-05-06T02:37:06.229Z,20.68
2019-05-06T02:38:05.114Z,20.71
2019-05-06T02:39:04.635Z,20.71
2019-05-06T02:40:04.630Z,20.63
2019-05-06T02:41:04.615Z,20.71
2019-05-06T02:42:04.629Z,20.71
2019-05-06T02:43:04.606Z,20.68
2019-05-06T02:44:04.603Z,20.61
2019-05-06T02:45:04.586Z,20.69
2019-05-06T02:46:04.592Z,20.69
2019-05-06T02:47:04.587Z,20.69
2019-05-06T02:48:04.711Z,20.68
2019-05-06T02:49:04.512Z,20.72
2019-05-06T02:50:04.881Z,20.66
2019-05-06T02:51:04.517Z,20.72
2019-05-06T02:52:04.486Z,20.73
2019-05-06T02:53:04.481Z,20.71
2019-05-06T02:54:04.475Z,20.68
2019-05-06T02:55:06.447Z,20.69
2019-05-06T02:56:04.743Z,20.69
2019-05-06T02:57:04.541Z,20.71
2019-05-06T02:58:04.475Z,20.64
2019-05-06T02:59:04.439Z,20.63
2019-05-06T03:00:05.318Z,20.68
2019-05-06T03:01:04.439Z,20.69
2019-05-06T03:02:04.402Z,20.69
2019-05-06T03:03:04.356Z,20.64
2019-05-06T03:04:04.816Z,20.72
2019-05-06T03:05:04.532Z,20.60
2019-05-06T03:06:04.650Z,20.61
2019-05-06T03:07:04.317Z,20.69
2019-05-06T03:08:04.314Z,20.69
2019-05-06T03:09:04.308Z,20.64
2019-05-06T03:10:04.374Z,20.58
2019-05-06T03:11:04.569Z,20.54
2019-05-06T03:12:04.260Z,20.69
2019-05-06T03:13:04.243Z,20.64
2019-05-06T03:14:04.239Z,20.64
2019-05-06T03:15:04.238Z,20.61
2019-05-06T03:16:05.941Z,20.69
2019-05-06T03:17:04.207Z,20.69
2019-05-06T03:18:04.199Z,20.68
2019-05-06T03:19:04.425Z,20.64
2019-05-06T03:20:04.559Z,20.64
2019-05-06T03:21:04.200Z,20.63
2019-05-06T03:22:04.185Z,20.60
2019-05-06T03:23:04.160Z,20.68
2019-05-06T03:24:07.368Z,20.61
2019-05-06T03:25:06.840Z,20.69
2019-05-06T03:26:06.474Z,20.66
2019-05-06T03:27:04.816Z,20.60
2019-05-06T03:28:04.482Z,20.57
2019-05-06T03:29:04.121Z,20.58
2019-05-06T03:30:04.528Z,20.56
2019-05-06T03:31:06.609Z,20.58
2019-05-06T03:32:07.179Z,20.56
2019-05-06T03:34:28.038Z,20.63
2019-05-06T03:35:25.777Z,20.56
2019-05-06T03:36:15.257Z,20.66
2019-05-06T03:37:07.775Z,20.60
2019-05-06T03:38:04.074Z,20.69
2019-05-06T03:39:03.985Z,20.63
2019-05-06T03:40:03.960Z,20.63
2019-05-06T03:41:03.946Z,20.58
2019-05-06T03:42:04.815Z,20.63
2019-05-06T03:43:03.926Z,20.57
2019-05-06T03:44:03.935Z,20.58
2019-05-06T03:45:04.392Z,20.63
2019-05-06T03:46:04.460Z,20.56
2019-05-06T03:47:05.818Z,20.60
2019-05-06T03:48:05.948Z,20.58
2019-05-06T03:49:04.034Z,20.68
2019-05-06T03:50:04.832Z,20.60
2019-05-06T03:51:04.326Z,20.57
2019-05-06T03:52:03.829Z,20.58
2019-05-06T03:53:03.809Z,20.64
2019-05-06T03:54:03.838Z,20.60
2019-05-06T03:55:04.228Z,20.61
2019-05-06T03:56:03.800Z,20.66
2019-05-06T03:57:03.831Z,20.56
2019-05-06T03:58:04.069Z,20.58
2019-05-06T03:59:03.760Z,20.66
2019-05-06T04:00:04.996Z,20.69
2019-05-06T04:01:03.954Z,20.69
2019-05-06T04:02:05.319Z,20.60
2019-05-06T04:03:03.714Z,20.64
2019-05-06T04:04:04.026Z,20.57
2019-05-06T04:05:04.280Z,20.63
2019-05-06T04:06:04.486Z,20.69
2019-05-06T04:07:03.685Z,20.68
2019-05-06T04:08:04.055Z,20.56
2019-05-06T04:09:03.900Z,20.58
2019-05-06T04:10:04.031Z,20.60
2019-05-06T04:11:03.645Z,20.60
2019-05-06T04:12:03.781Z,20.63
2019-05-06T04:13:04.274Z,20.58
2019-05-06T04:14:03.589Z,20.64
2019-05-06T04:15:04.301Z,20.60
2019-05-06T04:16:03.962Z,20.57
2019-05-06T04:17:03.571Z,20.57
2019-05-06T04:18:04.071Z,20.58
2019-05-06T04:19:04.261Z,20.66
2019-05-06T04:20:04.157Z,20.57
2019-05-06T04:21:03.854Z,20.64
2019-05-06T04:22:03.848Z,20.60
2019-05-06T04:23:06.270Z,20.63
2019-05-06T04:24:04.318Z,20.64
2019-05-06T04:25:04.205Z,20.60
2019-05-06T04:26:03.774Z,20.63
2019-05-06T04:27:03.466Z,20.60
2019-05-06T04:28:03.426Z,20.54
2019-05-06T04:29:04.105Z,20.71
2019-05-06T04:30:04.620Z,20.57
2019-05-06T04:31:03.407Z,20.63
2019-05-06T04:32:03.643Z,20.57
2019-05-06T04:33:03.580Z,20.54
2019-05-06T04:34:13.538Z,20.56
2019-05-06T04:35:04.340Z,20.58
2019-05-06T04:36:03.828Z,20.56
2019-05-06T04:37:03.677Z,20.56
2019-05-06T04:38:03.432Z,20.57
2019-05-06T04:39:04.145Z,20.63
2019-05-06T04:40:04.543Z,20.60
2019-05-06T04:41:03.340Z,20.63
2019-05-06T04:42:03.691Z,20.61
2019-05-06T04:43:03.754Z,20.57
2019-05-06T04:44:03.284Z,20.61
2019-05-06T04:45:04.590Z,20.56
2019-05-06T04:46:03.430Z,20.57
2019-05-06T04:47:05.404Z,20.60
2019-05-06T04:48:03.675Z,20.60
2019-05-06T04:49:04.175Z,20.56
2019-05-06T04:50:04.773Z,20.58
2019-05-06T04:51:03.614Z,20.51
2019-05-06T04:52:03.771Z,20.57
2019-05-06T04:53:04.664Z,20.58
2019-05-06T04:54:04.206Z,20.57
2019-05-06T04:55:03.711Z,20.57
2019-05-06T04:56:04.118Z,20.68
2019-05-06T04:57:05.149Z,20.58
2019-05-06T04:58:04.103Z,20.68
2019-05-06T04:59:06.399Z,20.56
2019-05-06T05:00:04.152Z,20.57
2019-05-06T05:01:04.070Z,20.60
2019-05-06T05:02:03.047Z,20.60
2019-05-06T05:03:03.201Z,20.61
2019-05-06T05:04:03.655Z,20.58
2019-05-06T05:05:04.085Z,20.61
2019-05-06T05:06:05.856Z,20.63
2019-05-06T05:07:03.464Z,20.54
2019-05-06T05:08:04.011Z,20.60
2019-05-06T05:09:03.047Z,20.57
2019-05-06T05:10:03.599Z,20.56
2019-05-06T05:11:03.690Z,20.72
2019-05-06T05:12:02.941Z,20.57
2019-05-06T05:13:03.633Z,20.58
2019-05-06T05:14:03.046Z,20.63
2019-05-06T05:15:03.345Z,20.56
2019-05-06T05:16:02.884Z,20.60
2019-05-06T05:17:02.906Z,20.61
2019-05-06T05:18:03.254Z,20.60
2019-05-06T05:19:02.879Z,20.66
2019-05-06T05:20:02.865Z,20.66
2019-05-06T05:21:02.853Z,20.69
2019-05-06T05:22:02.884Z,20.53
2019-05-06T05:23:02.833Z,20.61
2019-05-06T05:24:02.830Z,20.63
2019-05-06T05:25:03.414Z,20.64
2019-05-06T05:26:03.032Z,20.58
2019-05-06T05:27:03.207Z,20.60
2019-05-06T05:28:02.782Z,20.64
2019-05-06T05:29:03.056Z,20.58
2019-05-06T05:30:02.762Z,20.57
2019-05-06T05:31:03.160Z,20.58
2019-05-06T05:32:02.716Z,20.57
2019-05-06T05:33:02.723Z,20.61
2019-05-06T05:34:02.701Z,20.60
2019-05-06T05:35:02.711Z,20.53
2019-05-06T05:36:02.723Z,20.66
2019-05-06T05:37:03.101Z,20.61
2019-05-06T05:38:03.117Z,20.58
2019-05-06T05:39:03.360Z,20.60
2019-05-06T05:40:03.187Z,20.54
2019-05-06T05:41:03.170Z,20.54
2019-05-06T05:42:02.969Z,20.54
2019-05-06T05:43:02.974Z,20.42
2019-05-06T05:44:02.608Z,20.37
2019-05-06T05:45:02.835Z,20.38
2019-05-06T05:46:02.999Z,20.25
2019-05-06T05:47:03.432Z,20.25
2019-05-06T05:48:02.898Z,20.25
2019-05-06T05:49:02.961Z,20.10
2019-05-06T05:50:03.015Z,20.15
2019-05-06T05:51:03.321Z,20.10
2019-05-06T05:52:03.415Z,20.13
2019-05-06T05:53:02.617Z,19.97
2019-05-06T05:54:02.479Z,19.97
2019-05-06T05:55:02.852Z,19.83
2019-05-06T05:56:02.646Z,19.89
2019-05-06T05:57:02.557Z,19.85
2019-05-06T05:58:03.138Z,19.85
2019-05-06T05:59:03.282Z,19.79
2019-05-06T06:00:03.973Z,19.76
2019-05-06T06:01:04.205Z,19.76
2019-05-06T06:02:03.878Z,19.70
2019-05-06T06:03:02.948Z,19.70
2019-05-06T06:04:03.107Z,19.68
2019-05-06T06:05:02.661Z,19.67
2019-05-06T06:06:03.109Z,19.67
2019-05-06T06:07:02.826Z,19.70
2019-05-06T06:08:02.979Z,19.68
2019-05-06T06:09:03.145Z,19.62
2019-05-06T06:10:02.780Z,19.55
2019-05-06T06:11:04.322Z,19.61
2019-05-06T06:12:02.775Z,19.68
2019-05-06T06:13:02.289Z,19.62
2019-05-06T06:14:03.027Z,19.60
2019-05-06T06:15:03.264Z,19.60
2019-05-06T06:16:02.857Z,19.55
2019-05-06T06:17:02.236Z,19.53
2019-05-06T06:18:04.482Z,19.49
2019-05-06T06:19:03.213Z,19.53
2019-05-06T06:20:02.694Z,19.49
2019-05-06T06:21:17.016Z,19.55
2019-05-06T06:22:02.711Z,19.49
2019-05-06T06:23:02.941Z,19.42
2019-05-06T06:24:02.785Z,19.45
2019-05-06T06:25:04.100Z,19.46
2019-05-06T06:26:04.063Z,19.34
2019-05-06T06:27:03.102Z,19.38
2019-05-06T06:28:02.715Z,19.38
2019-05-06T06:29:03.317Z,19.35
2019-05-06T06:30:02.523Z,19.40
2019-05-06T06:31:03.034Z,19.46
2019-05-06T06:32:03.140Z,19.39
2019-05-06T06:33:02.651Z,19.43
2019-05-06T06:34:02.087Z,19.38
2019-05-06T06:35:10.536Z,19.46
2019-05-06T06:36:02.882Z,19.45
2019-05-06T06:37:02.571Z,19.40
2019-05-06T06:38:02.762Z,19.40
2019-05-06T06:39:02.261Z,19.49
2019-05-06T06:40:02.705Z,19.46
2019-05-06T06:41:02.781Z,19.42
2019-05-06T06:42:02.824Z,19.45
2019-05-06T06:43:02.194Z,19.39
2019-05-06T06:44:02.304Z,19.39
2019-05-06T06:45:03.565Z,19.38
2019-05-06T06:46:02.489Z,19.45
2019-05-06T06:47:02.164Z,19.42
2019-05-06T06:48:03.113Z,19.47
2019-05-06T06:49:03.233Z,19.40
2019-05-06T06:50:02.864Z,19.40
2019-05-06T06:51:03.463Z,19.31
2019-05-06T06:52:03.217Z,19.43
2019-05-06T06:53:03.007Z,19.38
2019-05-06T06:54:02.497Z,19.35
2019-05-06T06:55:02.660Z,19.38
2019-05-06T06:56:02.069Z,19.34
2019-05-06T06:57:06.195Z,19.27
2019-05-06T06:58:02.693Z,19.31
2019-05-06T06:59:02.549Z,19.34
2019-05-06T07:00:04.064Z,19.35
2019-05-06T07:01:03.122Z,19.32
2019-05-06T07:02:02.752Z,19.35
2019-05-06T07:03:02.725Z,19.34
2019-05-06T07:04:06.779Z,19.35
2019-05-06T07:05:02.413Z,19.35
2019-05-06T07:06:02.263Z,19.32
2019-05-06T07:07:02.893Z,19.30
2019-05-06T07:08:02.187Z,19.35
2019-05-06T07:09:02.727Z,19.32
2019-05-06T07:10:02.657Z,19.40
2019-05-06T07:11:02.336Z,19.23
2019-05-06T07:12:03.475Z,19.40
2019-05-06T07:13:02.887Z,19.32
2019-05-06T07:14:02.632Z,19.38
2019-05-06T07:15:02.431Z,19.38
2019-05-06T07:16:02.917Z,19.32
2019-05-06T07:17:02.477Z,19.31
2019-05-06T07:18:02.328Z,19.27
2019-05-06T07:19:03.109Z,19.28
2019-05-06T07:20:02.896Z,19.30
2019-05-06T07:21:04.401Z,19.31
2019-05-06T07:22:02.887Z,19.38
2019-05-06T07:23:01.947Z,19.35
2019-05-06T07:24:02.169Z,19.31
2019-05-06T07:25:03.764Z,19.42
2019-05-06T07:26:03.110Z,19.32
2019-05-06T07:27:03.031Z,19.34
2019-05-06T07:28:02.913Z,19.39
2019-05-06T07:29:04.001Z,19.32
2019-05-06T07:30:02.986Z,19.35
2019-05-06T07:31:17.194Z,19.43
2019-05-06T07:32:02.697Z,19.42
2019-05-06T07:33:03.472Z,19.49
2019-05-06T07:34:02.619Z,19.43
2019-05-06T07:35:02.270Z,19.40
2019-05-06T07:36:02.178Z,19.43
2019-05-06T07:37:03.452Z,19.45
2019-05-06T07:38:02.355Z,19.46
2019-05-06T07:39:04.088Z,19.46
2019-05-06T07:40:03.026Z,19.38
2019-05-06T07:41:04.563Z,19.45
2019-05-06T07:42:02.489Z,19.39
2019-05-06T07:43:02.204Z,19.39
2019-05-06T07:44:02.157Z,19.40
2019-05-06T07:45:06.509Z,19.39
2019-05-06T07:46:02.541Z,19.38
2019-05-06T07:47:03.523Z,19.35
2019-05-06T07:48:03.407Z,19.28
2019-05-06T07:49:03.305Z,19.25
2019-05-06T07:50:02.406Z,19.27
2019-05-06T07:51:03.037Z,19.27
2019-05-06T07:52:02.857Z,19.30
2019-05-06T07:53:02.318Z,19.32
2019-05-06T07:54:02.809Z,19.30
2019-05-06T07:55:02.527Z,19.23
2019-05-06T07:56:03.648Z,19.23
2019-05-06T07:57:02.402Z,19.27
2019-05-06T07:58:02.888Z,19.34
2019-05-06T07:59:03.098Z,19.31
2019-05-06T08:00:03.301Z,19.39
2019-05-06T08:01:02.649Z,19.31
2019-05-06T08:02:02.275Z,19.34
2019-05-06T08:03:02.480Z,19.39
2019-05-06T08:04:02.555Z,19.35
2019-05-06T08:05:02.648Z,19.39
2019-05-06T08:06:02.689Z,19.35
2019-05-06T08:07:03.130Z,19.35
2019-05-06T08:08:03.434Z,19.45
2019-05-06T08:09:03.126Z,19.43
2019-05-06T08:10:02.151Z,19.47
2019-05-06T08:11:02.647Z,19.38
2019-05-06T08:12:02.780Z,19.34
2019-05-06T08:13:02.778Z,19.45
2019-05-06T08:14:02.242Z,19.47
2019-05-06T08:15:04.610Z,19.34
2019-05-06T08:16:02.209Z,19.38
2019-05-06T08:17:02.213Z,19.47
2019-05-06T08:18:03.078Z,19.42
2019-05-06T08:19:02.797Z,19.42
2019-05-06T08:20:02.510Z,19.43
2019-05-06T08:21:02.427Z,19.47
2019-05-06T08:22:02.728Z,19.49
2019-05-06T08:23:02.128Z,19.40
2019-05-06T08:24:02.742Z,19.45
2019-05-06T08:25:03.283Z,19.42
2019-05-06T08:26:10.034Z,19.43
2019-05-06T08:27:02.914Z,19.32
2019-05-06T08:28:02.265Z,19.47
2019-05-06T08:29:02.671Z,19.49
2019-05-06T08:30:02.389Z,19.45
2019-05-06T08:31:02.403Z,19.45
2019-05-06T08:32:02.877Z,19.34
2019-05-06T08:33:02.205Z,19.38
2019-05-06T08:34:02.624Z,19.45
2019-05-06T08:35:03.117Z,19.42
2019-05-06T08:36:10.514Z,19.46
2019-05-06T08:37:02.451Z,19.43
2019-05-06T08:38:02.345Z,19.49
2019-05-06T08:39:02.793Z,19.49
2019-05-06T08:40:03.158Z,19.47
2019-05-06T08:41:02.624Z,19.45
2019-05-06T08:42:02.614Z,19.49
2019-05-06T08:43:02.232Z,19.46
2019-05-06T08:44:02.607Z,19.47
2019-05-06T08:45:02.207Z,19.42
2019-05-06T08:46:03.061Z,19.43
2019-05-06T08:47:02.480Z,19.43
2019-05-06T08:48:02.421Z,19.42
2019-05-06T08:49:02.835Z,19.42
2019-05-06T08:50:02.362Z,19.39
2019-05-06T08:51:02.794Z,19.43
2019-05-06T08:52:02.395Z,19.47
2019-05-06T08:53:00.526Z,19.39
2019-05-06T08:54:03.056Z,19.49
2019-05-06T08:55:04.341Z,19.40
2019-05-06T08:56:01.919Z,19.45
2019-05-06T08:57:02.467Z,19.35
2019-05-06T08:58:02.758Z,19.38
2019-05-06T08:59:00.470Z,19.34
2019-05-06T09:00:00.453Z,19.32
2019-05-06T09:01:02.692Z,19.39
2019-05-06T09:02:02.960Z,19.40
2019-05-06T09:03:00.405Z,19.46
2019-05-06T09:04:11.438Z,19.47
2019-05-06T09:05:02.744Z,19.43
2019-05-06T09:06:02.989Z,19.52
2019-05-06T09:07:02.772Z,19.40
2019-05-06T09:08:00.394Z,19.46
2019-05-06T09:09:02.389Z,19.43
2019-05-06T09:10:02.500Z,19.38
2019-05-06T09:11:02.930Z,19.35
2019-05-06T09:12:02.480Z,19.42
2019-05-06T09:13:01.990Z,19.42
2019-05-06T09:14:03.151Z,19.34
2019-05-06T09:15:00.275Z,19.32
2019-05-06T09:16:02.335Z,19.34
2019-05-06T09:17:02.606Z,19.40
2019-05-06T09:18:00.250Z,19.45
2019-05-06T09:19:04.252Z,19.34
2019-05-06T09:20:02.491Z,19.27
2019-05-06T09:21:00.236Z,19.38
2019-05-06T09:22:02.366Z,19.30
2019-05-06T09:23:00.198Z,19.30
2019-05-06T09:24:02.262Z,19.35
2019-05-06T09:25:02.278Z,19.35
2019-05-06T09:26:02.513Z,19.32
2019-05-06T09:27:00.218Z,19.30
2019-05-06T09:28:02.549Z,19.30
2019-05-06T09:29:02.286Z,19.40
2019-05-06T09:30:02.815Z,19.35
2019-05-06T09:31:02.171Z,19.40
2019-05-06T09:32:01.763Z,19.58
2019-05-06T09:33:00.141Z,19.61
2019-05-06T09:34:02.534Z,19.65
2019-05-06T09:35:02.718Z,19.71
2019-05-06T09:36:00.060Z,19.72
2019-05-06T09:37:03.310Z,19.78
2019-05-06T09:38:02.066Z,19.87
2019-05-06T09:39:02.198Z,19.92
2019-05-06T09:40:02.541Z,19.97
2019-05-06T09:40:59.984Z,20.02
2019-05-06T09:42:02.178Z,20.16
2019-05-06T09:42:59.975Z,20.15
2019-05-06T09:43:59.972Z,20.22
2019-05-06T09:45:02.066Z,20.23
2019-05-06T09:46:01.796Z,20.30
2019-05-06T09:47:01.856Z,20.31
2019-05-06T09:47:59.916Z,20.35
2019-05-06T09:48:59.930Z,20.46
2019-05-06T09:50:02.528Z,20.38
2019-05-06T09:50:59.883Z,20.54
2019-05-06T09:52:02.328Z,20.63
2019-05-06T09:53:02.011Z,20.60
2019-05-06T09:54:01.617Z,20.56
2019-05-06T09:55:02.990Z,20.64
2019-05-06T09:55:59.835Z,20.68
2019-05-06T09:57:02.264Z,20.73
2019-05-06T09:57:59.810Z,20.68
2019-05-06T09:59:02.145Z,20.78
2019-05-06T10:00:03.581Z,20.79
2019-05-06T10:00:59.773Z,20.79
2019-05-06T10:01:59.791Z,20.91
2019-05-06T10:02:59.739Z,20.94
2019-05-06T10:03:59.732Z,20.90
2019-05-06T10:04:59.720Z,20.81
2019-05-06T10:05:59.733Z,20.81
2019-05-06T10:07:00.158Z,20.91
2019-05-06T10:07:59.698Z,20.93
2019-05-06T10:09:04.786Z,21.00
2019-05-06T10:09:59.695Z,20.96
2019-05-06T10:11:00.095Z,20.98
2019-05-06T10:12:01.924Z,21.00
2019-05-06T10:12:59.635Z,20.83
2019-05-06T10:13:59.633Z,20.94
2019-05-06T10:15:02.942Z,20.85
2019-05-06T10:15:59.628Z,20.83
2019-05-06T10:16:59.594Z,20.78
2019-05-06T10:17:59.591Z,20.72
2019-05-06T10:18:59.568Z,20.73
2019-05-06T10:19:59.554Z,20.79
2019-05-06T10:20:59.562Z,20.72
2019-05-06T10:21:59.569Z,20.82
2019-05-06T10:22:59.574Z,20.79
2019-05-06T10:24:02.054Z,20.82
2019-05-06T10:24:59.513Z,20.87
2019-05-06T10:25:59.563Z,20.72
2019-05-06T10:26:59.880Z,20.73
2019-05-06T10:28:01.779Z,20.75
2019-05-06T10:28:59.455Z,20.71
2019-05-06T10:29:59.734Z,20.61
2019-05-06T10:30:59.442Z,20.63
2019-05-06T10:31:59.435Z,20.41
2019-05-06T10:32:59.475Z,20.44
2019-05-06T10:33:59.413Z,20.37
2019-05-06T10:34:59.408Z,20.33
2019-05-06T10:35:59.387Z,20.26
2019-05-06T10:37:11.577Z,20.16
2019-05-06T10:37:59.374Z,20.13
2019-05-06T10:38:59.359Z,20.16
2019-05-06T10:40:02.868Z,20.05
2019-05-06T10:41:03.879Z,20.07
2019-05-06T10:41:59.336Z,19.92
2019-05-06T10:42:59.389Z,19.92
2019-05-06T10:43:59.369Z,19.97
2019-05-06T10:44:59.294Z,19.86
2019-05-06T10:46:01.193Z,19.87
2019-05-06T10:46:59.383Z,19.83
2019-05-06T10:47:59.265Z,19.79
2019-05-06T10:48:59.260Z,19.83
2019-05-06T10:49:59.252Z,19.79
2019-05-06T10:50:59.238Z,19.79
2019-05-06T10:51:59.218Z,19.76
2019-05-06T10:52:59.211Z,19.78
2019-05-06T10:53:59.190Z,19.72
2019-05-06T10:54:59.173Z,19.71
2019-05-06T10:55:59.167Z,19.79
2019-05-06T10:56:59.166Z,19.75
2019-05-06T10:57:59.167Z,19.79
2019-05-06T10:58:59.135Z,19.78
2019-05-06T10:59:59.143Z,19.80
2019-05-06T11:00:59.116Z,19.78
2019-05-06T11:01:59.104Z,19.79
2019-05-06T11:02:59.108Z,19.75
2019-05-06T11:03:59.093Z,19.86
2019-05-06T11:04:59.070Z,19.78
2019-05-06T11:05:59.081Z,19.75
2019-05-06T11:06:59.048Z,19.82
2019-05-06T11:07:59.085Z,19.76
2019-05-06T11:08:59.030Z,19.78
2019-05-06T11:09:59.025Z,19.79
2019-05-06T11:11:13.962Z,19.78
2019-05-06T11:11:59.020Z,19.83
2019-05-06T11:12:59.007Z,19.89
2019-05-06T11:13:58.973Z,19.89
2019-05-06T11:14:58.956Z,19.78
2019-05-06T11:15:58.943Z,19.76
2019-05-06T11:16:58.938Z,19.82
2019-05-06T11:17:58.960Z,19.86
2019-05-06T11:18:59.028Z,19.72
2019-05-06T11:19:58.936Z,19.72
2019-05-06T11:20:58.913Z,19.79
2019-05-06T11:21:58.877Z,19.85
2019-05-06T11:22:58.896Z,19.75
2019-05-06T11:23:59.147Z,19.78
2019-05-06T11:24:58.876Z,19.76
2019-05-06T11:25:58.853Z,19.72
2019-05-06T11:26:58.844Z,19.80
2019-05-06T11:27:58.839Z,19.76
2019-05-06T11:28:58.809Z,19.71
2019-05-06T11:29:58.794Z,19.78
2019-05-06T11:30:58.805Z,19.68
2019-05-06T11:31:58.777Z,19.75
2019-05-06T11:32:58.774Z,19.80
2019-05-06T11:33:58.760Z,19.71
2019-05-06T11:34:58.748Z,19.72
2019-05-06T11:35:58.738Z,19.60
2019-05-06T11:36:58.729Z,19.72
2019-05-06T11:37:58.728Z,19.71
2019-05-06T11:38:58.714Z,19.61
2019-05-06T11:39:58.689Z,19.68
2019-05-06T11:40:58.694Z,19.70
2019-05-06T11:42:15.329Z,19.68
2019-05-06T11:42:58.705Z,19.68
2019-05-06T11:43:58.672Z,19.71
2019-05-06T11:44:58.641Z,19.70
2019-05-06T11:45:58.635Z,19.67
2019-05-06T11:46:58.604Z,19.65
2019-05-06T11:47:58.619Z,19.67
2019-05-06T11:48:58.609Z,19.70
2019-05-06T11:49:58.610Z,19.68
2019-05-06T11:50:58.564Z,19.68
2019-05-06T11:51:58.563Z,19.62
2019-05-06T11:52:58.565Z,19.65
2019-05-06T11:53:58.562Z,19.61
2019-05-06T11:54:58.526Z,19.58
2019-05-06T11:55:58.527Z,19.57
2019-05-06T11:56:58.778Z,19.62
2019-05-06T11:57:58.488Z,19.62
2019-05-06T11:58:58.498Z,19.64
2019-05-06T11:59:58.478Z,19.57
2019-05-06T12:00:58.471Z,19.64
2019-05-06T12:01:58.464Z,19.62
2019-05-06T12:02:58.435Z,19.64
2019-05-06T12:03:58.440Z,19.62
2019-05-06T12:04:58.425Z,19.62
2019-05-06T12:05:58.429Z,19.50
2019-05-06T12:07:10.416Z,19.58
2019-05-06T12:08:04.564Z,19.62
2019-05-06T12:08:58.368Z,19.60
2019-05-06T12:09:58.360Z,19.60
2019-05-06T12:10:58.344Z,19.62
2019-05-06T12:11:58.393Z,19.62
2019-05-06T12:12:58.337Z,19.57
2019-05-06T12:13:58.312Z,19.60
2019-05-06T12:14:58.314Z,19.53
2019-05-06T12:15:58.298Z,19.57
2019-05-06T12:16:58.278Z,19.55
2019-05-06T12:17:58.293Z,19.58
2019-05-06T12:18:59.935Z,19.53
2019-05-06T12:19:58.251Z,19.55
2019-05-06T12:21:08.129Z,19.58
2019-05-06T12:21:58.282Z,19.57
2019-05-06T12:22:58.217Z,19.58
2019-05-06T12:23:58.218Z,19.55
2019-05-06T12:24:58.244Z,19.57
2019-05-06T12:25:58.218Z,19.57
2019-05-06T12:26:58.168Z,19.55
2019-05-06T12:27:58.152Z,19.58
2019-05-06T12:28:58.151Z,19.60
2019-05-06T12:29:58.138Z,19.57
2019-05-06T12:30:58.143Z,19.58
2019-05-06T12:31:58.131Z,19.53
2019-05-06T12:32:58.107Z,19.49
2019-05-06T12:33:58.126Z,19.53
2019-05-06T12:34:58.082Z,19.55
2019-05-06T12:35:58.120Z,19.50
2019-05-06T12:36:58.068Z,19.47
2019-05-06T12:37:58.077Z,19.47
2019-05-06T12:38:58.045Z,19.40
2019-05-06T12:39:58.052Z,19.46
2019-05-06T12:40:59.831Z,19.42
2019-05-06T12:41:58.018Z,19.43
2019-05-06T12:42:58.008Z,19.40
2019-05-06T12:43:58.021Z,19.43
2019-05-06T12:44:57.984Z,19.46
2019-05-06T12:45:57.971Z,19.43
2019-05-06T12:47:00.024Z,19.39
2019-05-06T12:47:57.954Z,19.46
2019-05-06T12:48:57.953Z,19.42
2019-05-06T12:49:57.969Z,19.38
2019-05-06T12:50:57.915Z,19.47
2019-05-06T12:51:57.906Z,19.45
2019-05-06T12:52:58.167Z,19.40